createdAt,value
2018-05-04T00:01:19.606Z,16.7
2018-05-04T00:02:41.991Z,16.8
2018-05-04T00:04:01.865Z,16.8
2018-05-04T00:05:21.693Z,16.8
2018-05-04T00:06:46.577Z,16.8
2018-05-04T00:08:06.404Z,16.7
2018-05-04T00:09:33.856Z,16.8
2018-05-04T00:10:53.688Z,16.7
2018-05-04T00:12:13.516Z,16.7
2018-05-04T00:13:35.870Z,16.7
2018-05-04T00:15:00.810Z,16.7
2018-05-04T00:16:23.164Z,16.7
2018-05-04T00:17:42.994Z,16.7
2018-05-04T00:19:02.854Z,16.7
2018-05-04T00:20:22.714Z,16.7
2018-05-04T00:21:42.532Z,16.7
2018-05-04T00:23:02.357Z,16.7
2018-05-04T00:24:27.239Z,16.7
2018-05-04T00:25:49.630Z,16.6
2018-05-04T00:27:11.991Z,16.7
2018-05-04T00:28:34.408Z,16.7
2018-05-04T00:29:54.266Z,16.7
2018-05-04T00:31:16.620Z,16.7
2018-05-04T00:32:39.015Z,16.6
2018-05-04T00:34:01.359Z,16.7
2018-05-04T00:35:21.177Z,16.7
2018-05-04T00:36:40.997Z,16.7
2018-05-04T00:38:13.534Z,16.6
2018-05-04T00:39:33.355Z,16.7
2018-05-04T00:40:53.197Z,16.7
2018-05-04T00:42:13.055Z,16.6
2018-05-04T00:43:32.880Z,16.6
2018-05-04T00:44:52.706Z,16.6
2018-05-04T00:46:20.153Z,16.6
2018-05-04T00:47:47.562Z,16.6
2018-05-04T00:49:12.486Z,16.6
2018-05-04T00:50:34.862Z,16.6
2018-05-04T00:51:54.755Z,16.6
2018-05-04T00:53:14.604Z,16.6
2018-05-04T00:54:34.503Z,16.6
2018-05-04T00:55:54.361Z,16.6
2018-05-04T00:57:16.712Z,16.6
2018-05-04T00:58:36.528Z,16.6
2018-05-04T00:59:56.351Z,16.6
2018-05-04T01:01:23.795Z,16.6
2018-05-04T01:02:43.637Z,16.6
2018-05-04T01:04:03.458Z,16.6
2018-05-04T01:05:23.322Z,16.6
2018-05-04T01:06:48.201Z,16.6
2018-05-04T01:08:20.676Z,16.6
2018-05-04T01:09:43.065Z,16.6
2018-05-04T01:11:05.426Z,16.6
2018-05-04T01:12:25.251Z,16.6
2018-05-04T01:13:52.668Z,16.5
2018-05-04T01:15:12.515Z,16.6
2018-05-04T01:16:32.336Z,16.6
2018-05-04T01:17:59.786Z,16.6
2018-05-04T01:19:19.631Z,16.6
2018-05-04T01:20:39.485Z,16.5
2018-05-04T01:21:59.384Z,16.5
2018-05-04T01:23:19.236Z,16.5
2018-05-04T01:24:39.086Z,16.5
2018-05-04T01:26:01.444Z,16.5
2018-05-04T01:27:21.258Z,16.5
2018-05-04T01:28:46.176Z,16.5
2018-05-04T01:30:06.072Z,16.5
2018-05-04T01:31:25.929Z,16.5
2018-05-04T01:32:45.812Z,16.5
2018-05-04T01:34:08.182Z,16.5
2018-05-04T01:35:30.588Z,16.5
2018-05-04T01:36:52.962Z,16.5
2018-05-04T01:38:12.785Z,16.4
2018-05-04T01:39:35.137Z,16.4
2018-05-04T01:40:54.967Z,16.4
2018-05-04T01:42:14.788Z,16.4
2018-05-04T01:43:34.626Z,16.3
2018-05-04T01:44:54.485Z,16.5
2018-05-04T01:46:14.381Z,16.4
2018-05-04T01:47:34.234Z,16.4
2018-05-04T01:48:54.117Z,16.4
2018-05-04T01:50:13.965Z,16.3
2018-05-04T01:51:38.927Z,16.4
2018-05-04T01:53:03.885Z,16.4
2018-05-04T01:54:23.725Z,16.4
2018-05-04T01:55:51.170Z,16.3
2018-05-04T01:57:10.986Z,16.3
2018-05-04T01:58:30.810Z,16.4
2018-05-04T01:59:50.681Z,16.4
2018-05-04T02:01:15.551Z,16.4
2018-05-04T02:02:35.405Z,16.3
2018-05-04T02:03:57.797Z,16.3
2018-05-04T02:05:20.195Z,16.3
2018-05-04T02:06:40.019Z,16.3
2018-05-04T02:08:07.444Z,16.3
2018-05-04T02:09:32.318Z,16.3
2018-05-04T02:10:59.800Z,16.2
2018-05-04T02:12:29.770Z,16.2
2018-05-04T02:13:57.201Z,16.3
2018-05-04T02:15:17.070Z,16.2
2018-05-04T02:16:36.928Z,16.3
2018-05-04T02:17:59.302Z,16.2
2018-05-04T02:19:19.156Z,16.2
2018-05-04T02:20:51.634Z,16.3
2018-05-04T02:22:19.113Z,16.2
2018-05-04T02:23:41.463Z,16.2
2018-05-04T02:25:03.838Z,16.2
2018-05-04T02:26:23.690Z,16.2
2018-05-04T02:27:46.076Z,16.2
2018-05-04T02:29:08.443Z,16.2
2018-05-04T02:30:28.296Z,16.2
2018-05-04T02:31:48.152Z,16.1
2018-05-04T02:33:08.013Z,16.1
2018-05-04T02:34:27.912Z,16.2
2018-05-04T02:35:52.787Z,16.2
2018-05-04T02:37:17.673Z,16.1
2018-05-04T02:38:37.525Z,16.1
2018-05-04T02:40:02.476Z,16.1
2018-05-04T02:41:22.300Z,16.1
2018-05-04T02:42:42.169Z,16.2
2018-05-04T02:44:02.038Z,16.1
2018-05-04T02:45:24.415Z,16.1
2018-05-04T02:46:44.315Z,16.1
2018-05-04T02:48:04.179Z,16
2018-05-04T02:49:34.185Z,16.1
2018-05-04T02:50:56.527Z,16.1
2018-05-04T02:52:16.353Z,16.1
2018-05-04T02:53:36.175Z,16.1
2018-05-04T02:54:56.012Z,16.1
2018-05-04T02:56:15.832Z,16.1
2018-05-04T02:57:35.711Z,16.1
2018-05-04T02:58:55.536Z,16.1
2018-05-04T03:00:15.363Z,16.1
2018-05-04T03:01:35.178Z,16.1
2018-05-04T03:02:57.531Z,16.1
2018-05-04T03:04:17.404Z,16
2018-05-04T03:05:39.757Z,16
2018-05-04T03:07:02.103Z,16.1
2018-05-04T03:08:29.528Z,16
2018-05-04T03:09:56.976Z,16.1
2018-05-04T03:11:19.350Z,16.1
2018-05-04T03:12:39.203Z,16.1
2018-05-04T03:14:01.613Z,16.1
2018-05-04T03:15:26.519Z,16.1
2018-05-04T03:16:46.373Z,16.1
2018-05-04T03:18:06.268Z,16.1
2018-05-04T03:19:26.089Z,16.1
2018-05-04T03:20:45.923Z,16
2018-05-04T03:22:08.283Z,16.1
2018-05-04T03:23:30.696Z,16.1
2018-05-04T03:24:50.567Z,16
2018-05-04T03:26:15.466Z,16
2018-05-04T03:27:35.282Z,16
2018-05-04T03:28:57.646Z,16
2018-05-04T03:30:17.526Z,16
2018-05-04T03:31:39.883Z,16
2018-05-04T03:32:59.763Z,16
2018-05-04T03:34:19.614Z,16
2018-05-04T03:35:49.608Z,16.1
2018-05-04T03:37:09.436Z,16
2018-05-04T03:38:29.307Z,16
2018-05-04T03:39:49.180Z,16.1
2018-05-04T03:41:11.540Z,16.1
2018-05-04T03:42:38.973Z,16.1
2018-05-04T03:44:01.329Z,16.1
2018-05-04T03:45:21.155Z,16.1
2018-05-04T03:46:46.072Z,16.1
2018-05-04T03:48:08.465Z,16.1
2018-05-04T03:49:30.811Z,16.1
2018-05-04T03:50:55.698Z,16.1
2018-05-04T03:52:20.586Z,16.1
2018-05-04T03:53:40.439Z,16.1
2018-05-04T03:55:02.787Z,16.1
2018-05-04T03:56:30.199Z,16.1
2018-05-04T03:57:50.027Z,16.1
2018-05-04T03:59:09.846Z,16.1
2018-05-04T04:00:32.259Z,16.1
2018-05-04T04:01:52.081Z,16.1
2018-05-04T04:03:14.430Z,16.2
2018-05-04T04:04:36.831Z,16.1
2018-05-04T04:05:56.703Z,16.1
2018-05-04T04:07:16.541Z,16.1
2018-05-04T04:08:36.442Z,16
2018-05-04T04:09:56.258Z,16
2018-05-04T04:11:18.647Z,16.1
2018-05-04T04:12:38.615Z,16.1
2018-05-04T04:14:03.557Z,16
2018-05-04T04:15:23.405Z,16.1
2018-05-04T04:16:48.327Z,16
2018-05-04T04:18:13.254Z,16.1
2018-05-04T04:19:33.093Z,16.1
2018-05-04T04:21:05.639Z,16.1
2018-05-04T04:22:30.575Z,16.1
2018-05-04T04:23:50.395Z,16.1
2018-05-04T04:25:12.748Z,16.1
2018-05-04T04:26:32.574Z,16.1
2018-05-04T04:27:52.398Z,16.1
2018-05-04T04:29:17.311Z,16.1
2018-05-04T04:30:44.746Z,16.1
2018-05-04T04:32:09.674Z,16.2
2018-05-04T04:33:29.493Z,16.1
2018-05-04T04:34:51.843Z,16.1
2018-05-04T04:36:24.323Z,16.2
2018-05-04T04:37:44.171Z,16.1
2018-05-04T04:39:03.991Z,16.1
2018-05-04T04:40:23.870Z,16.1
2018-05-04T04:41:43.726Z,16.1
2018-05-04T04:43:06.081Z,16.1
2018-05-04T04:44:30.979Z,16.1
2018-05-04T04:45:50.809Z,16.1
2018-05-04T04:47:13.194Z,16.1
2018-05-04T04:48:35.550Z,16.1
2018-05-04T04:49:55.371Z,16.1
2018-05-04T04:51:15.256Z,16.1
2018-05-04T04:52:37.600Z,16.1
2018-05-04T04:53:57.418Z,16.2
2018-05-04T04:55:24.841Z,16.1
2018-05-04T04:56:44.701Z,16.2
2018-05-04T04:58:04.533Z,16.2
2018-05-04T04:59:29.407Z,16.2
2018-05-04T05:00:54.286Z,16.2
2018-05-04T05:02:24.245Z,16.2
2018-05-04T05:03:46.600Z,16.2
2018-05-04T05:05:06.458Z,16.2
2018-05-04T05:06:26.280Z,16.2
2018-05-04T05:07:46.110Z,16.1
2018-05-04T05:09:05.932Z,16.1
2018-05-04T05:10:25.752Z,16.2
2018-05-04T05:11:45.584Z,16.1
2018-05-04T05:13:07.982Z,16.2
2018-05-04T05:14:32.885Z,16.2
2018-05-04T05:15:55.309Z,16.2
2018-05-04T05:17:25.247Z,16.1
2018-05-04T05:18:45.116Z,16.1
2018-05-04T05:20:04.946Z,16.1
2018-05-04T05:21:27.327Z,16.1
2018-05-04T05:22:49.676Z,16.1
2018-05-04T05:24:12.041Z,16.1
2018-05-04T05:25:34.458Z,16.2
2018-05-04T05:26:54.308Z,16.2
2018-05-04T05:28:14.129Z,16.2
2018-05-04T05:29:39.067Z,16.2
2018-05-04T05:31:01.500Z,16.2
2018-05-04T05:32:21.351Z,16.1
2018-05-04T05:33:41.221Z,16.1
2018-05-04T05:35:01.066Z,16.1
2018-05-04T05:36:23.442Z,16.1
2018-05-04T05:37:48.367Z,16.1
2018-05-04T05:39:08.232Z,16.1
2018-05-04T05:40:28.089Z,16.2
2018-05-04T05:41:47.980Z,16.2
2018-05-04T05:43:07.837Z,16.1
2018-05-04T05:44:27.669Z,16.2
2018-05-04T05:45:47.529Z,16.2
2018-05-04T05:47:14.992Z,16.2
2018-05-04T05:48:42.400Z,16.2
2018-05-04T05:50:07.271Z,16.2
2018-05-04T05:51:27.086Z,16.2
2018-05-04T05:52:46.960Z,16.2
2018-05-04T05:54:06.806Z,16.2
2018-05-04T05:55:29.155Z,16.2
2018-05-04T05:56:51.509Z,16.2
2018-05-04T05:58:11.376Z,16.2
2018-05-04T05:59:33.718Z,16.2
2018-05-04T06:00:56.090Z,16.2
2018-05-04T06:02:18.473Z,16.2
2018-05-04T06:03:38.356Z,16.3
2018-05-04T06:04:58.215Z,16.3
2018-05-04T06:06:18.102Z,16.3
2018-05-04T06:07:37.953Z,16.3
2018-05-04T06:08:57.807Z,16.3
2018-05-04T06:10:17.648Z,16.3
2018-05-04T06:11:37.471Z,16.3
2018-05-04T06:13:02.458Z,16.3
2018-05-04T06:14:22.348Z,16.3
2018-05-04T06:15:47.243Z,16.3
2018-05-04T06:17:07.128Z,16.3
2018-05-04T06:18:26.957Z,16.3
2018-05-04T06:19:46.781Z,16.3
2018-05-04T06:21:06.640Z,16.3
2018-05-04T06:22:26.535Z,16.3
2018-05-04T06:23:51.412Z,16.2
2018-05-04T06:25:21.418Z,16.3
2018-05-04T06:26:43.770Z,16.3
2018-05-04T06:28:06.155Z,16.3
2018-05-04T06:29:28.525Z,16.3
2018-05-04T06:30:48.382Z,16.3
2018-05-04T06:32:08.247Z,16.3
2018-05-04T06:33:28.083Z,16.3
2018-05-04T06:34:50.485Z,16.3
2018-05-04T06:36:12.876Z,16.3
2018-05-04T06:37:32.773Z,16.4
2018-05-04T06:38:52.628Z,16.4
2018-05-04T06:40:12.479Z,16.4
2018-05-04T06:41:32.343Z,16.4
2018-05-04T06:42:54.766Z,16.4
2018-05-04T06:44:14.585Z,16.4
2018-05-04T06:45:34.414Z,16.4
2018-05-04T06:46:54.237Z,16.4
2018-05-04T06:48:21.655Z,16.4
2018-05-04T06:49:44.056Z,16.4
2018-05-04T06:51:03.877Z,16.4
2018-05-04T06:52:23.699Z,16.5
2018-05-04T06:53:43.514Z,16.5
2018-05-04T06:55:03.397Z,16.5
2018-05-04T06:56:30.808Z,16.5
2018-05-04T06:58:03.315Z,16.5
2018-05-04T06:59:23.250Z,16.5
2018-05-04T07:00:43.106Z,16.5
2018-05-04T07:02:02.950Z,16.5
2018-05-04T07:03:27.859Z,16.6
2018-05-04T07:04:50.219Z,16.6
2018-05-04T07:06:10.092Z,16.7
2018-05-04T07:07:29.910Z,16.7
2018-05-04T07:08:49.795Z,16.7
2018-05-04T07:10:09.651Z,16.7
2018-05-04T07:11:29.559Z,16.7
2018-05-04T07:12:49.385Z,16.7
2018-05-04T07:14:09.205Z,16.7
2018-05-04T07:15:31.614Z,16.7
2018-05-04T07:16:51.454Z,16.7
2018-05-04T07:18:11.287Z,16.7
2018-05-04T07:19:33.675Z,16.7
2018-05-04T07:20:53.501Z,16.7
2018-05-04T07:22:13.361Z,16.8
2018-05-04T07:23:33.223Z,16.8
2018-05-04T07:24:55.577Z,16.8
2018-05-04T07:26:15.428Z,16.8
2018-05-04T07:27:35.249Z,16.8
2018-05-04T07:28:55.069Z,16.8
2018-05-04T07:30:14.906Z,16.8
2018-05-04T07:31:34.725Z,16.9
2018-05-04T07:32:57.124Z,16.8
2018-05-04T07:34:27.148Z,16.9
2018-05-04T07:35:49.576Z,16.9
2018-05-04T07:37:11.938Z,16.8
2018-05-04T07:38:31.753Z,16.9
2018-05-04T07:39:54.110Z,16.8
2018-05-04T07:41:13.929Z,16.9
2018-05-04T07:42:36.281Z,16.9
2018-05-04T07:44:01.167Z,16.9
2018-05-04T07:45:26.045Z,16.9
2018-05-04T07:46:45.897Z,16.9
2018-05-04T07:48:08.316Z,16.9
2018-05-04T07:49:28.171Z,17
2018-05-04T07:50:48.027Z,17
2018-05-04T07:52:15.480Z,17
2018-05-04T07:53:35.312Z,17
2018-05-04T07:54:55.193Z,17
2018-05-04T07:56:17.583Z,17
2018-05-04T07:57:42.494Z,17
2018-05-04T07:59:12.476Z,17
2018-05-04T08:00:44.948Z,17
2018-05-04T08:02:07.367Z,17
2018-05-04T08:03:42.400Z,17
2018-05-04T08:05:02.268Z,17
2018-05-04T08:06:24.629Z,17.1
2018-05-04T08:07:57.094Z,17.1
2018-05-04T08:09:16.982Z,17.1
2018-05-04T08:10:39.411Z,17.1
2018-05-04T08:11:59.230Z,17.1
2018-05-04T08:13:19.105Z,17.1
2018-05-04T08:14:38.925Z,17.1
2018-05-04T08:15:58.839Z,17.1
2018-05-04T08:17:26.274Z,17.1
2018-05-04T08:18:48.627Z,17.1
2018-05-04T08:20:08.499Z,17.1
2018-05-04T08:21:30.860Z,17.1
2018-05-04T08:22:53.260Z,17.1
2018-05-04T08:24:13.135Z,17.1
2018-05-04T08:25:35.482Z,17.1
2018-05-04T08:26:55.325Z,17.1
2018-05-04T08:28:15.143Z,17.1
2018-05-04T08:29:34.978Z,17.1
2018-05-04T08:30:54.801Z,17.1
2018-05-04T08:32:14.663Z,17.1
2018-05-04T08:33:34.492Z,17.1
2018-05-04T08:35:04.434Z,17.1
2018-05-04T08:36:29.364Z,17.1
2018-05-04T08:37:49.218Z,17.1
2018-05-04T08:39:26.753Z,17.2
2018-05-04T08:40:46.599Z,17.2
2018-05-04T08:42:09.133Z,17.2
2018-05-04T08:43:39.081Z,17.2
2018-05-04T08:44:58.906Z,17.2
2018-05-04T08:46:31.381Z,17.2
2018-05-04T08:47:51.205Z,17.3
2018-05-04T08:49:11.025Z,17.3
2018-05-04T08:50:35.920Z,17.3
2018-05-04T08:51:55.795Z,17.3
2018-05-04T08:53:25.783Z,17.3
2018-05-04T08:54:45.642Z,17.3
2018-05-04T08:56:18.125Z,17.3
2018-05-04T08:57:38.019Z,17.3
2018-05-04T08:58:57.876Z,17.3
2018-05-04T09:00:17.733Z,17.3
2018-05-04T09:01:40.081Z,17.3
2018-05-04T09:02:59.896Z,17.3
2018-05-04T09:04:19.769Z,17.3
2018-05-04T09:05:42.172Z,17.3
2018-05-04T09:07:12.196Z,17.3
2018-05-04T09:08:32.044Z,17.2
2018-05-04T09:09:51.891Z,17.2
2018-05-04T09:11:14.273Z,17.2
2018-05-04T09:12:34.101Z,17.2
2018-05-04T09:13:56.498Z,17.2
2018-05-04T09:15:16.342Z,17.2
2018-05-04T09:16:38.723Z,17.2
2018-05-04T09:17:58.566Z,17.2
2018-05-04T09:19:20.917Z,17.2
2018-05-04T09:20:40.762Z,17.2
2018-05-04T09:22:00.591Z,17.2
2018-05-04T09:23:30.591Z,17.2
2018-05-04T09:25:00.530Z,17.2
2018-05-04T09:26:22.882Z,17.2
2018-05-04T09:27:55.353Z,17.2
2018-05-04T09:29:20.234Z,17.2
2018-05-04T09:30:40.158Z,17.2
2018-05-04T09:32:05.072Z,17.2
2018-05-04T09:33:27.460Z,17.2
2018-05-04T09:34:47.364Z,17.2
2018-05-04T09:36:07.216Z,17.2
2018-05-04T09:37:27.063Z,17.3
2018-05-04T09:38:51.965Z,17.3
2018-05-04T09:40:11.804Z,17.3
2018-05-04T09:41:31.651Z,17.3
2018-05-04T09:42:54.030Z,17.3
2018-05-04T09:44:16.399Z,17.3
2018-05-04T09:45:38.759Z,17.3
2018-05-04T09:47:06.197Z,17.4
2018-05-04T09:48:28.593Z,17.4
2018-05-04T09:49:48.422Z,17.4
2018-05-04T09:51:08.251Z,17.4
2018-05-04T09:52:33.133Z,17.5
2018-05-04T09:53:52.999Z,17.5
2018-05-04T09:55:15.367Z,17.5
2018-05-04T09:56:35.213Z,17.5
2018-05-04T09:57:55.064Z,17.5
2018-05-04T09:59:22.498Z,17.5
2018-05-04T10:00:47.421Z,17.5
2018-05-04T10:02:14.833Z,17.5
2018-05-04T10:03:34.701Z,17.5
2018-05-04T10:04:54.671Z,17.5
2018-05-04T10:06:14.482Z,17.5
2018-05-04T10:07:34.351Z,17.5
2018-05-04T10:08:54.170Z,17.6
2018-05-04T10:10:14.040Z,17.6
2018-05-04T10:11:33.877Z,17.7
2018-05-04T10:12:56.224Z,17.7
2018-05-04T10:14:18.605Z,17.7
2018-05-04T10:15:46.017Z,17.7
2018-05-04T10:17:08.384Z,17.7
2018-05-04T10:18:28.260Z,17.7
2018-05-04T10:19:48.113Z,17.7
2018-05-04T10:21:10.465Z,17.7
2018-05-04T10:22:30.292Z,17.8
2018-05-04T10:23:52.685Z,17.8
2018-05-04T10:25:12.531Z,17.8
2018-05-04T10:26:37.447Z,17.8
2018-05-04T10:27:57.294Z,17.8
2018-05-04T10:29:17.165Z,17.8
2018-05-04T10:30:44.641Z,17.9
2018-05-04T10:32:04.468Z,17.9
2018-05-04T10:33:24.289Z,17.9
2018-05-04T10:34:51.740Z,17.9
2018-05-04T10:36:11.600Z,17.9
2018-05-04T10:37:31.413Z,17.9
2018-05-04T10:38:56.450Z,18
2018-05-04T10:40:16.374Z,18
2018-05-04T10:41:36.261Z,18
2018-05-04T10:42:56.083Z,18
2018-05-04T10:44:20.977Z,18
2018-05-04T10:45:40.801Z,18.1
2018-05-04T10:47:15.829Z,18.1
2018-05-04T10:48:35.661Z,18.1
2018-05-04T10:49:55.498Z,18.2
2018-05-04T10:51:22.959Z,18.2
2018-05-04T10:52:42.777Z,18.2
2018-05-04T10:54:05.193Z,18.3
2018-05-04T10:55:25.070Z,18.3
2018-05-04T10:56:52.473Z,18.3
2018-05-04T10:58:12.338Z,18.3
2018-05-04T10:59:34.701Z,18.3
2018-05-04T11:00:57.084Z,18.3
2018-05-04T11:02:22.010Z,18.3
2018-05-04T11:03:44.362Z,18.3
2018-05-04T11:05:06.769Z,18.4
2018-05-04T11:06:26.661Z,18.4
2018-05-04T11:07:46.555Z,18.4
2018-05-04T11:09:06.448Z,18.5
2018-05-04T11:10:26.267Z,18.4
2018-05-04T11:11:46.124Z,18.4
2018-05-04T11:13:08.524Z,18.4
2018-05-04T11:14:28.358Z,18.5
2018-05-04T11:15:50.709Z,18.5
2018-05-04T11:17:10.531Z,18.5
2018-05-04T11:18:32.900Z,18.5
2018-05-04T11:19:52.718Z,18.5
2018-05-04T11:21:17.651Z,18.5
2018-05-04T11:22:37.514Z,18.5
2018-05-04T11:23:57.367Z,18.5
2018-05-04T11:25:19.747Z,18.5
2018-05-04T11:26:42.127Z,18.6
2018-05-04T11:28:02.005Z,18.5
2018-05-04T11:29:24.391Z,18.5
2018-05-04T11:30:44.213Z,18.5
2018-05-04T11:32:04.068Z,18.5
2018-05-04T11:33:23.946Z,18.6
2018-05-04T11:34:46.313Z,18.6
2018-05-04T11:36:11.197Z,18.6
2018-05-04T11:37:33.576Z,18.6
2018-05-04T11:38:53.461Z,18.6
2018-05-04T11:40:15.813Z,18.7
2018-05-04T11:41:35.654Z,18.7
2018-05-04T11:42:58.013Z,18.7
2018-05-04T11:44:17.877Z,18.7
2018-05-04T11:45:37.731Z,18.7
2018-05-04T11:46:57.586Z,18.8
2018-05-04T11:48:22.486Z,18.8
2018-05-04T11:49:49.914Z,18.8
2018-05-04T11:51:27.469Z,18.8
2018-05-04T11:52:47.350Z,18.8
2018-05-04T11:54:12.225Z,18.8
2018-05-04T11:55:32.140Z,18.8
2018-05-04T11:56:57.052Z,18.8
2018-05-04T11:58:16.955Z,18.8
2018-05-04T11:59:42.000Z,18.9
2018-05-04T12:01:01.843Z,18.8
2018-05-04T12:02:21.701Z,18.9
2018-05-04T12:03:44.054Z,18.9
2018-05-04T12:05:03.873Z,19
2018-05-04T12:06:23.709Z,19.1
2018-05-04T12:07:43.528Z,19.2
2018-05-04T12:09:03.351Z,19.3
2018-05-04T12:10:30.787Z,19.4
2018-05-04T12:11:53.160Z,19.4
2018-05-04T12:13:20.624Z,19.4
2018-05-04T12:14:40.498Z,19.5
2018-05-04T12:16:00.356Z,19.5
2018-05-04T12:17:22.702Z,19.5
2018-05-04T12:18:42.522Z,19.3
2018-05-04T12:20:02.341Z,19.3
2018-05-04T12:21:22.221Z,19.4
2018-05-04T12:22:42.114Z,19.6
2018-05-04T12:24:02.023Z,19.9
2018-05-04T12:25:26.945Z,20.2
2018-05-04T12:26:51.854Z,20.2
2018-05-04T12:28:21.882Z,20.4
2018-05-04T12:29:46.792Z,20.4
2018-05-04T12:31:06.677Z,21.9
2018-05-04T12:32:29.026Z,21.7
2018-05-04T12:33:56.482Z,21.3
2018-05-04T12:35:36.611Z,21
2018-05-04T12:36:59.022Z,20.9
2018-05-04T12:38:18.855Z,21
2018-05-04T12:39:41.292Z,21.4
2018-05-04T12:41:01.150Z,21.5
2018-05-04T12:42:21.058Z,21.5
2018-05-04T12:43:51.003Z,21.3
2018-05-04T12:45:13.401Z,21.2
2018-05-04T12:46:33.227Z,21.1
2018-05-04T12:47:53.046Z,21.1
2018-05-04T12:49:17.973Z,21.1
2018-05-04T12:50:40.372Z,21.2
2018-05-04T12:52:02.775Z,21.2
2018-05-04T12:53:22.736Z,21.3
2018-05-04T12:54:42.589Z,21.2
2018-05-04T12:56:04.974Z,21.1
2018-05-04T12:57:27.375Z,21.1
2018-05-04T12:58:47.200Z,21.1
2018-05-04T13:00:09.555Z,21.1
2018-05-04T13:01:29.376Z,21.1
2018-05-04T13:02:51.750Z,21.1
2018-05-04T13:04:11.608Z,21
2018-05-04T13:05:31.473Z,21
2018-05-04T13:06:51.318Z,21
2018-05-04T13:08:11.209Z,21
2018-05-04T13:09:41.177Z,20.9
2018-05-04T13:11:01.036Z,20.9
2018-05-04T13:12:23.430Z,20.8
2018-05-04T13:13:43.259Z,20.8
2018-05-04T13:15:03.079Z,20.7
2018-05-04T13:16:22.905Z,20.7
2018-05-04T13:17:42.734Z,20.8
2018-05-04T13:19:05.085Z,20.7
2018-05-04T13:20:27.482Z,20.7
2018-05-04T13:21:47.354Z,20.8
2018-05-04T13:23:07.212Z,20.8
2018-05-04T13:24:37.164Z,20.8
2018-05-04T13:25:56.983Z,20.9
2018-05-04T13:27:24.410Z,20.9
2018-05-04T13:28:44.233Z,20.9
2018-05-04T13:30:11.673Z,20.9
2018-05-04T13:31:31.519Z,20.9
2018-05-04T13:32:51.369Z,21
2018-05-04T13:34:11.218Z,21.1
2018-05-04T13:35:31.112Z,21
2018-05-04T13:36:51.009Z,20.9
2018-05-04T13:38:10.848Z,20.9
2018-05-04T13:39:30.681Z,21
2018-05-04T13:40:54.034Z,21.1
2018-05-04T13:42:16.788Z,21.1
2018-05-04T13:43:41.692Z,21
2018-05-04T13:45:09.093Z,21.1
2018-05-04T13:46:28.950Z,21.1
2018-05-04T13:47:51.362Z,21.1
2018-05-04T13:49:11.215Z,21.1
2018-05-04T13:50:31.108Z,21.1
2018-05-04T13:51:50.971Z,21.1
2018-05-04T13:53:15.888Z,21.1
2018-05-04T13:54:38.240Z,21.2
2018-05-04T13:56:00.658Z,21.3
2018-05-04T13:57:28.095Z,21.3
2018-05-04T13:58:47.933Z,21.3
2018-05-04T14:00:20.399Z,21.4
2018-05-04T14:01:42.747Z,21.3
2018-05-04T14:03:02.604Z,21.3
2018-05-04T14:04:24.946Z,21.4
2018-05-04T14:05:44.846Z,21.5
2018-05-04T14:07:07.255Z,21.5
2018-05-04T14:08:27.076Z,21.5
2018-05-04T14:09:46.900Z,21.6
2018-05-04T14:11:06.725Z,21.6
2018-05-04T14:12:26.604Z,21.6
2018-05-04T14:13:49.007Z,21.6
2018-05-04T14:15:08.850Z,21.7
2018-05-04T14:16:33.780Z,21.7
2018-05-04T14:17:56.175Z,21.7
2018-05-04T14:19:18.535Z,21.8
2018-05-04T14:20:48.472Z,21.8
2018-05-04T14:22:10.862Z,21.8
2018-05-04T14:23:30.775Z,21.9
2018-05-04T14:24:53.148Z,21.9
2018-05-04T14:26:15.503Z,22
2018-05-04T14:27:35.381Z,22
2018-05-04T14:29:02.857Z,22.1
2018-05-04T14:30:22.721Z,21.9
2018-05-04T14:32:00.264Z,21.9
2018-05-04T14:33:22.620Z,21.9
2018-05-04T14:34:44.970Z,22.1
2018-05-04T14:36:09.869Z,22.1
2018-05-04T14:37:32.219Z,22.2
2018-05-04T14:38:52.061Z,22.3
2018-05-04T14:40:11.878Z,22.3
2018-05-04T14:41:34.258Z,22.4
2018-05-04T14:43:04.236Z,22.4
2018-05-04T14:44:24.054Z,22.5
2018-05-04T14:45:46.445Z,22.6
2018-05-04T14:47:11.384Z,22.7
2018-05-04T14:48:33.740Z,22.5
2018-05-04T14:49:58.677Z,22.6
2018-05-04T14:51:18.497Z,22.5
2018-05-04T14:52:38.328Z,22.5
2018-05-04T14:53:58.183Z,22.4
2018-05-04T14:55:18.007Z,22
2018-05-04T14:56:45.480Z,21.8
2018-05-04T14:58:07.854Z,21.9
2018-05-04T14:59:27.700Z,21.9
2018-05-04T15:00:52.581Z,21.9
2018-05-04T15:02:12.405Z,21.8
2018-05-04T15:03:37.311Z,21.6
2018-05-04T15:04:59.691Z,21.3
2018-05-04T15:06:22.070Z,21.1
2018-05-04T15:07:41.902Z,21
2018-05-04T15:09:04.276Z,20.9
2018-05-04T15:10:24.095Z,20.9
2018-05-04T15:11:46.453Z,20.8
2018-05-04T15:13:06.323Z,20.7
2018-05-04T15:14:26.173Z,20.7
2018-05-04T15:15:58.711Z,20.6
2018-05-04T15:17:21.156Z,20.5
2018-05-04T15:18:48.612Z,20.5
2018-05-04T15:20:08.488Z,20.5
2018-05-04T15:21:28.376Z,20.4
2018-05-04T15:22:55.812Z,20.4
2018-05-04T15:24:20.787Z,20.4
2018-05-04T15:25:43.162Z,20.4
2018-05-04T15:27:03.037Z,20.4
2018-05-04T15:28:25.409Z,20.4
2018-05-04T15:29:45.262Z,20.4
2018-05-04T15:31:05.158Z,20.4
2018-05-04T15:32:27.580Z,20.4
2018-05-04T15:33:52.461Z,20.3
2018-05-04T15:35:17.341Z,20.3
2018-05-04T15:36:39.699Z,20.3
2018-05-04T15:38:02.096Z,20.3
2018-05-04T15:39:24.496Z,20.2
2018-05-04T15:40:46.874Z,20.1
2018-05-04T15:42:14.303Z,20.1
2018-05-04T15:43:36.658Z,20
2018-05-04T15:44:56.523Z,20.1
2018-05-04T15:46:21.404Z,20
2018-05-04T15:47:41.243Z,20
2018-05-04T15:49:03.643Z,19.9
2018-05-04T15:50:23.459Z,19.9
2018-05-04T15:51:45.858Z,19.9
2018-05-04T15:53:08.245Z,19.9
2018-05-04T15:54:28.077Z,19.8
2018-05-04T15:55:55.538Z,19.8
2018-05-04T15:57:17.921Z,19.8
2018-05-04T15:58:42.822Z,19.8
2018-05-04T16:00:02.768Z,19.7
2018-05-04T16:01:22.617Z,19.7
2018-05-04T16:02:44.974Z,19.7
2018-05-04T16:04:12.446Z,19.6
2018-05-04T16:05:32.273Z,19.6
2018-05-04T16:07:02.225Z,19.6
2018-05-04T16:08:27.150Z,19.5
2018-05-04T16:09:46.966Z,19.6
2018-05-04T16:11:14.486Z,19.5
2018-05-04T16:12:34.339Z,19.5
2018-05-04T16:13:54.171Z,19.5
2018-05-04T16:15:16.524Z,19.5
2018-05-04T16:16:41.441Z,19.5
2018-05-04T16:18:06.368Z,19.4
2018-05-04T16:19:26.206Z,19.4
2018-05-04T16:20:46.062Z,19.4
2018-05-04T16:22:05.937Z,19.4
2018-05-04T16:23:25.900Z,19.3
2018-05-04T16:24:45.790Z,19.3
2018-05-04T16:26:08.163Z,19.3
2018-05-04T16:27:35.619Z,19.3
2018-05-04T16:28:55.484Z,19.3
2018-05-04T16:30:20.393Z,19.2
2018-05-04T16:31:45.342Z,19.2
2018-05-04T16:33:07.770Z,19.2
2018-05-04T16:34:35.213Z,19.3
2018-05-04T16:35:57.580Z,19.3
2018-05-04T16:37:17.412Z,19.3
2018-05-04T16:38:37.256Z,19.3
2018-05-04T16:39:59.646Z,19.3
2018-05-04T16:41:19.470Z,19.3
2018-05-04T16:42:46.894Z,19.3
2018-05-04T16:44:09.281Z,19.3
2018-05-04T16:45:31.649Z,19.3
2018-05-04T16:46:54.038Z,19.2
2018-05-04T16:48:13.861Z,19.2
2018-05-04T16:49:36.213Z,19.2
2018-05-04T16:50:58.575Z,19.2
2018-05-04T16:52:20.952Z,19.1
2018-05-04T16:53:40.850Z,19.1
2018-05-04T16:55:00.698Z,19.1
2018-05-04T16:56:20.575Z,19.1
2018-05-04T16:57:40.428Z,19.1
2018-05-04T16:59:00.274Z,19.1
2018-05-04T17:00:22.669Z,19
2018-05-04T17:01:42.536Z,19.1
2018-05-04T17:03:02.414Z,19.1
2018-05-04T17:04:22.246Z,19.1
2018-05-04T17:05:42.074Z,19.2
2018-05-04T17:07:04.420Z,19.3
2018-05-04T17:08:24.244Z,19.3
2018-05-04T17:09:44.124Z,19.4
2018-05-04T17:11:14.071Z,19.4
2018-05-04T17:12:33.891Z,19.6
2018-05-04T17:13:53.744Z,19.7
2018-05-04T17:15:13.577Z,19.8
2018-05-04T17:16:38.464Z,19.9
2018-05-04T17:18:05.883Z,20.1
2018-05-04T17:19:30.800Z,20.2
2018-05-04T17:20:53.204Z,20.3
2018-05-04T17:22:13.124Z,20.5
2018-05-04T17:23:40.638Z,20.7
2018-05-04T17:25:03.045Z,21
2018-05-04T17:26:27.928Z,21.3
2018-05-04T17:27:47.765Z,21.4
2018-05-04T17:29:12.650Z,21.6
2018-05-04T17:30:35.094Z,21.7
2018-05-04T17:31:54.942Z,21.9
2018-05-04T17:33:14.778Z,22
2018-05-04T17:34:34.620Z,22.1
2018-05-04T17:35:57.023Z,22.2
2018-05-04T17:37:16.866Z,22.3
2018-05-04T17:38:39.214Z,22.4
2018-05-04T17:40:04.092Z,22.4
2018-05-04T17:41:26.491Z,22.3
2018-05-04T17:42:48.839Z,22.3
2018-05-04T17:44:08.665Z,22.3
2018-05-04T17:45:31.028Z,22.2
2018-05-04T17:46:50.865Z,22.3
2018-05-04T17:48:10.732Z,22.1
2018-05-04T17:49:30.619Z,22.2
2018-05-04T17:50:50.465Z,22.2
2018-05-04T17:52:10.374Z,22.2
2018-05-04T17:53:30.228Z,22.2
2018-05-04T17:54:52.573Z,22.3
2018-05-04T17:56:17.449Z,22.3
2018-05-04T17:57:39.849Z,22.4
2018-05-04T17:59:07.302Z,22.3
2018-05-04T18:00:29.672Z,22.4
2018-05-04T18:01:49.489Z,22.3
2018-05-04T18:03:09.441Z,22.2
2018-05-04T18:04:31.863Z,22.2
2018-05-04T18:05:54.220Z,22.2
2018-05-04T18:07:16.563Z,22.2
2018-05-04T18:08:38.924Z,22.2
2018-05-04T18:09:58.782Z,22
2018-05-04T18:11:23.660Z,22
2018-05-04T18:12:43.532Z,22
2018-05-04T18:14:13.513Z,21.8
2018-05-04T18:15:40.926Z,21.8
2018-05-04T18:17:00.747Z,21.7
2018-05-04T18:18:25.665Z,21.7
2018-05-04T18:19:45.522Z,21.6